sensor_id;sensor_type;location;lat;lon;timestamp;P1;durP1;ratioP1;P2;durP2;ratioP2
3698;SDS011;1865;50.918;7.092;2022-12-18T00:01:37;17.90;;;7.40;;
3698;SDS011;1865;50.918;7.092;2022-12-18T00:04:06;17.33;;;6.60;;
3698;SDS011;1865;50.918;7.092;2022-12-18T00:06:33;11.60;;;6.40;;
3698;SDS011;1865;50.918;7.092;2022-12-18T00:09:00;17.50;;;7.97;;
3698;SDS011;1865;50.918;7.092;2022-12-18T00:11:27;19.60;;;7.20;;
3698;SDS011;1865;50.918;7.092;2022-12-18T00:13:55;16.10;;;7.10;;
3698;SDS011;1865;50.918;7.092;2022-12-18T00:16:23;13.63;;;7.00;;
3698;SDS011;1865;50.918;7.092;2022-12-18T00:18:49;15.53;;;7.20;;
3698;SDS011;1865;50.918;7.092;2022-12-18T00:21:16;13.60;;;6.50;;
3698;SDS011;1865;50.918;7.092;2022-12-18T00:23:43;15.60;;;7.00;;
3698;SDS011;1865;50.918;7.092;2022-12-18T00:26:10;16.20;;;7.13;;
3698;SDS011;1865;50.918;7.092;2022-12-18T00:28:38;19.43;;;7.70;;
3698;SDS011;1865;50.918;7.092;2022-12-18T00:31:13;15.23;;;7.00;;
3698;SDS011;1865;50.918;7.092;2022-12-18T00:33:40;18.37;;;7.43;;
3698;SDS011;1865;50.918;7.092;2022-12-18T00:36:13;17.10;;;7.40;;
3698;SDS011;1865;50.918;7.092;2022-12-18T00:38:41;20.90;;;7.30;;
3698;SDS011;1865;50.918;7.092;2022-12-18T00:41:08;19.57;;;7.90;;
3698;SDS011;1865;50.918;7.092;2022-12-18T00:43:36;17.00;;;7.20;;
3698;SDS011;1865;50.918;7.092;2022-12-18T00:46:02;17.50;;;6.53;;
3698;SDS011;1865;50.918;7.092;2022-12-18T00:48:27;15.10;;;7.43;;
3698;SDS011;1865;50.918;7.092;2022-12-18T00:50:53;15.93;;;7.13;;
3698;SDS011;1865;50.918;7.092;2022-12-18T00:53:18;18.07;;;7.77;;
3698;SDS011;1865;50.918;7.092;2022-12-18T00:55:44;19.13;;;8.40;;
3698;SDS011;1865;50.918;7.092;2022-12-18T00:58:10;12.70;;;6.43;;
3698;SDS011;1865;50.918;7.092;2022-12-18T01:00:37;13.03;;;7.00;;
3698;SDS011;1865;50.918;7.092;2022-12-18T01:03:03;18.77;;;6.80;;
3698;SDS011;1865;50.918;7.092;2022-12-18T01:05:29;18.83;;;6.70;;
3698;SDS011;1865;50.918;7.092;2022-12-18T01:07:55;13.37;;;6.20;;
3698;SDS011;1865;50.918;7.092;2022-12-18T01:10:22;16.53;;;7.30;;
3698;SDS011;1865;50.918;7.092;2022-12-18T01:12:48;15.53;;;7.67;;
3698;SDS011;1865;50.918;7.092;2022-12-18T01:15:14;19.17;;;7.40;;
3698;SDS011;1865;50.918;7.092;2022-12-18T01:17:40;20.87;;;7.40;;
3698;SDS011;1865;50.918;7.092;2022-12-18T01:20:06;19.70;;;7.03;;
3698;SDS011;1865;50.918;7.092;2022-12-18T01:22:33;13.20;;;6.60;;
3698;SDS011;1865;50.918;7.092;2022-12-18T01:24:59;16.53;;;7.33;;
3698;SDS011;1865;50.918;7.092;2022-12-18T01:27:24;15.50;;;7.70;;
3698;SDS011;1865;50.918;7.092;2022-12-18T01:29:50;20.90;;;8.27;;
3698;SDS011;1865;50.918;7.092;2022-12-18T01:32:16;15.90;;;7.60;;
3698;SDS011;1865;50.918;7.092;2022-12-18T01:34:42;17.40;;;7.57;;
3698;SDS011;1865;50.918;7.092;2022-12-18T01:37:07;20.20;;;7.80;;
3698;SDS011;1865;50.918;7.092;2022-12-18T01:39:33;18.90;;;6.17;;
3698;SDS011;1865;50.918;7.092;2022-12-18T01:41:59;16.33;;;6.70;;
3698;SDS011;1865;50.918;7.092;2022-12-18T01:50:07;15.30;;;7.00;;
3698;SDS011;1865;50.918;7.092;2022-12-18T01:52:34;15.77;;;7.10;;
3698;SDS011;1865;50.918;7.092;2022-12-18T01:55:00;22.77;;;7.37;;
3698;SDS011;1865;50.918;7.092;2022-12-18T01:57:29;17.00;;;7.33;;
3698;SDS011;1865;50.918;7.092;2022-12-18T01:59:56;17.13;;;7.60;;
3698;SDS011;1865;50.918;7.092;2022-12-18T02:02:27;21.73;;;7.73;;
3698;SDS011;1865;50.918;7.092;2022-12-18T02:04:54;16.83;;;7.43;;
3698;SDS011;1865;50.918;7.092;2022-12-18T02:10:02;16.73;;;7.60;;
3698;SDS011;1865;50.918;7.092;2022-12-18T02:18:10;16.93;;;7.00;;
3698;SDS011;1865;50.918;7.092;2022-12-18T02:20:47;12.30;;;5.60;;
3698;SDS011;1865;50.918;7.092;2022-12-18T02:26:43;13.70;;;5.40;;
3698;SDS011;1865;50.918;7.092;2022-12-18T02:29:18;16.60;;;6.87;;
3698;SDS011;1865;50.918;7.092;2022-12-18T02:31:51;13.70;;;6.20;;
3698;SDS011;1865;50.918;7.092;2022-12-18T02:34:24;14.63;;;6.30;;
3698;SDS011;1865;50.918;7.092;2022-12-18T02:36:54;19.23;;;5.40;;
3698;SDS011;1865;50.918;7.092;2022-12-18T02:39:21;13.50;;;6.10;;
3698;SDS011;1865;50.918;7.092;2022-12-18T02:41:48;12.70;;;5.20;;
3698;SDS011;1865;50.918;7.092;2022-12-18T02:44:15;13.03;;;6.40;;
3698;SDS011;1865;50.918;7.092;2022-12-18T02:46:41;18.17;;;6.73;;
3698;SDS011;1865;50.918;7.092;2022-12-18T02:55:07;19.43;;;6.80;;
3698;SDS011;1865;50.918;7.092;2022-12-18T02:57:57;13.43;;;6.23;;
3698;SDS011;1865;50.918;7.092;2022-12-18T03:00:54;14.77;;;6.40;;
3698;SDS011;1865;50.918;7.092;2022-12-18T03:03:38;15.20;;;6.03;;
3698;SDS011;1865;50.918;7.092;2022-12-18T03:06:26;11.67;;;5.37;;
3698;SDS011;1865;50.918;7.092;2022-12-18T03:08:58;17.50;;;6.97;;
3698;SDS011;1865;50.918;7.092;2022-12-18T03:11:27;12.30;;;5.87;;
3698;SDS011;1865;50.918;7.092;2022-12-18T03:14:14;11.60;;;6.13;;
3698;SDS011;1865;50.918;7.092;2022-12-18T03:16:43;14.83;;;5.80;;
3698;SDS011;1865;50.918;7.092;2022-12-18T03:19:11;16.77;;;6.47;;
3698;SDS011;1865;50.918;7.092;2022-12-18T03:21:45;13.60;;;6.70;;
3698;SDS011;1865;50.918;7.092;2022-12-18T03:24:12;13.93;;;6.50;;
3698;SDS011;1865;50.918;7.092;2022-12-18T03:26:41;14.13;;;6.33;;
3698;SDS011;1865;50.918;7.092;2022-12-18T03:29:18;11.60;;;5.10;;
3698;SDS011;1865;50.918;7.092;2022-12-18T03:31:53;18.57;;;6.97;;
3698;SDS011;1865;50.918;7.092;2022-12-18T03:34:23;11.23;;;5.47;;
3698;SDS011;1865;50.918;7.092;2022-12-18T03:37:01;12.20;;;4.77;;
3698;SDS011;1865;50.918;7.092;2022-12-18T03:39:26;12.63;;;5.67;;
3698;SDS011;1865;50.918;7.092;2022-12-18T03:47:31;14.93;;;5.20;;
3698;SDS011;1865;50.918;7.092;2022-12-18T03:52:36;11.53;;;4.53;;
3698;SDS011;1865;50.918;7.092;2022-12-18T03:55:07;10.97;;;5.53;;
3698;SDS011;1865;50.918;7.092;2022-12-18T03:57:34;12.43;;;4.60;;
3698;SDS011;1865;50.918;7.092;2022-12-18T04:00:03;12.73;;;5.50;;
3698;SDS011;1865;50.918;7.092;2022-12-18T04:02:34;10.40;;;4.60;;
3698;SDS011;1865;50.918;7.092;2022-12-18T04:05:05;12.73;;;5.93;;
3698;SDS011;1865;50.918;7.092;2022-12-18T04:07:32;8.60;;;4.20;;
3698;SDS011;1865;50.918;7.092;2022-12-18T04:09:58;10.00;;;4.53;;
3698;SDS011;1865;50.918;7.092;2022-12-18T04:12:26;11.13;;;5.43;;
3698;SDS011;1865;50.918;7.092;2022-12-18T04:14:53;11.27;;;5.00;;
3698;SDS011;1865;50.918;7.092;2022-12-18T04:17:19;9.03;;;4.60;;
3698;SDS011;1865;50.918;7.092;2022-12-18T04:19:45;12.87;;;5.57;;
3698;SDS011;1865;50.918;7.092;2022-12-18T04:22:11;12.63;;;5.40;;
3698;SDS011;1865;50.918;7.092;2022-12-18T04:24:36;8.13;;;4.43;;
3698;SDS011;1865;50.918;7.092;2022-12-18T04:27:02;11.57;;;5.30;;
3698;SDS011;1865;50.918;7.092;2022-12-18T04:29:28;11.90;;;4.97;;
3698;SDS011;1865;50.918;7.092;2022-12-18T04:31:53;11.90;;;5.00;;
3698;SDS011;1865;50.918;7.092;2022-12-18T04:34:19;12.57;;;5.20;;
3698;SDS011;1865;50.918;7.092;2022-12-18T04:36:45;12.33;;;5.10;;
3698;SDS011;1865;50.918;7.092;2022-12-18T04:39:10;11.57;;;5.40;;
3698;SDS011;1865;50.918;7.092;2022-12-18T04:41:36;12.67;;;6.03;;
3698;SDS011;1865;50.918;7.092;2022-12-18T04:44:01;10.90;;;5.60;;
3698;SDS011;1865;50.918;7.092;2022-12-18T04:46:27;13.93;;;4.73;;
3698;SDS011;1865;50.918;7.092;2022-12-18T04:48:52;12.23;;;4.77;;
3698;SDS011;1865;50.918;7.092;2022-12-18T04:51:17;7.80;;;4.00;;
3698;SDS011;1865;50.918;7.092;2022-12-18T04:53:43;11.53;;;5.27;;
3698;SDS011;1865;50.918;7.092;2022-12-18T04:56:12;12.73;;;5.03;;
3698;SDS011;1865;50.918;7.092;2022-12-18T04:58:39;9.83;;;4.97;;
3698;SDS011;1865;50.918;7.092;2022-12-18T05:01:06;11.60;;;4.33;;
3698;SDS011;1865;50.918;7.092;2022-12-18T05:03:33;13.90;;;5.40;;
3698;SDS011;1865;50.918;7.092;2022-12-18T05:05:59;12.90;;;5.57;;
3698;SDS011;1865;50.918;7.092;2022-12-18T05:08:25;14.10;;;6.03;;
3698;SDS011;1865;50.918;7.092;2022-12-18T05:10:57;9.90;;;5.37;;
3698;SDS011;1865;50.918;7.092;2022-12-18T05:13:31;14.27;;;5.90;;
3698;SDS011;1865;50.918;7.092;2022-12-18T05:15:57;15.97;;;5.30;;
3698;SDS011;1865;50.918;7.092;2022-12-18T05:18:23;13.20;;;5.67;;
3698;SDS011;1865;50.918;7.092;2022-12-18T05:20:50;12.07;;;5.40;;
3698;SDS011;1865;50.918;7.092;2022-12-18T05:23:16;10.53;;;5.50;;
3698;SDS011;1865;50.918;7.092;2022-12-18T05:25:42;13.60;;;5.60;;
3698;SDS011;1865;50.918;7.092;2022-12-18T05:28:11;13.17;;;6.00;;
3698;SDS011;1865;50.918;7.092;2022-12-18T05:30:36;11.80;;;5.47;;
3698;SDS011;1865;50.918;7.092;2022-12-18T05:33:02;16.80;;;5.50;;
3698;SDS011;1865;50.918;7.092;2022-12-18T05:35:27;12.37;;;5.40;;
3698;SDS011;1865;50.918;7.092;2022-12-18T05:37:53;14.03;;;6.00;;
3698;SDS011;1865;50.918;7.092;2022-12-18T05:40:18;14.43;;;5.60;;
3698;SDS011;1865;50.918;7.092;2022-12-18T05:42:44;13.70;;;5.87;;
3698;SDS011;1865;50.918;7.092;2022-12-18T05:45:09;12.63;;;5.63;;
3698;SDS011;1865;50.918;7.092;2022-12-18T05:47:35;15.93;;;5.77;;
3698;SDS011;1865;50.918;7.092;2022-12-18T05:50:00;13.70;;;5.50;;
3698;SDS011;1865;50.918;7.092;2022-12-18T05:52:26;13.60;;;6.70;;
3698;SDS011;1865;50.918;7.092;2022-12-18T05:54:51;16.00;;;5.60;;
3698;SDS011;1865;50.918;7.092;2022-12-18T05:57:17;14.20;;;5.97;;
3698;SDS011;1865;50.918;7.092;2022-12-18T05:59:42;11.77;;;5.30;;
3698;SDS011;1865;50.918;7.092;2022-12-18T06:02:08;10.63;;;5.83;;
3698;SDS011;1865;50.918;7.092;2022-12-18T06:04:33;15.63;;;6.23;;
3698;SDS011;1865;50.918;7.092;2022-12-18T06:06:59;16.10;;;5.90;;
3698;SDS011;1865;50.918;7.092;2022-12-18T06:09:24;12.00;;;5.30;;
3698;SDS011;1865;50.918;7.092;2022-12-18T06:11:51;15.70;;;5.60;;
3698;SDS011;1865;50.918;7.092;2022-12-18T06:14:17;14.17;;;5.17;;
3698;SDS011;1865;50.918;7.092;2022-12-18T06:16:42;12.43;;;5.53;;
3698;SDS011;1865;50.918;7.092;2022-12-18T06:19:12;12.40;;;5.20;;
3698;SDS011;1865;50.918;7.092;2022-12-18T06:21:40;13.37;;;5.40;;
3698;SDS011;1865;50.918;7.092;2022-12-18T06:24:05;13.83;;;5.80;;
3698;SDS011;1865;50.918;7.092;2022-12-18T06:26:31;15.40;;;5.67;;
3698;SDS011;1865;50.918;7.092;2022-12-18T06:28:56;12.03;;;5.23;;
3698;SDS011;1865;50.918;7.092;2022-12-18T06:31:22;12.50;;;5.83;;
3698;SDS011;1865;50.918;7.092;2022-12-18T06:33:47;11.57;;;5.37;;
3698;SDS011;1865;50.918;7.092;2022-12-18T06:36:13;12.83;;;5.43;;
3698;SDS011;1865;50.918;7.092;2022-12-18T06:38:40;11.93;;;5.07;;
3698;SDS011;1865;50.918;7.092;2022-12-18T06:41:07;13.97;;;5.43;;
3698;SDS011;1865;50.918;7.092;2022-12-18T06:43:34;14.77;;;5.33;;
3698;SDS011;1865;50.918;7.092;2022-12-18T06:46:00;12.33;;;6.27;;
3698;SDS011;1865;50.918;7.092;2022-12-18T06:48:26;15.87;;;7.47;;
3698;SDS011;1865;50.918;7.092;2022-12-18T06:50:52;15.77;;;7.80;;
3698;SDS011;1865;50.918;7.092;2022-12-18T06:53:18;11.00;;;5.80;;
3698;SDS011;1865;50.918;7.092;2022-12-18T06:55:43;16.67;;;7.27;;
3698;SDS011;1865;50.918;7.092;2022-12-18T06:58:09;13.97;;;5.97;;
3698;SDS011;1865;50.918;7.092;2022-12-18T07:00:34;13.20;;;5.90;;
3698;SDS011;1865;50.918;7.092;2022-12-18T07:03:00;14.63;;;6.33;;
3698;SDS011;1865;50.918;7.092;2022-12-18T07:05:25;13.43;;;5.80;;
3698;SDS011;1865;50.918;7.092;2022-12-18T07:07:51;14.70;;;6.67;;
3698;SDS011;1865;50.918;7.092;2022-12-18T07:10:17;13.37;;;5.93;;
3698;SDS011;1865;50.918;7.092;2022-12-18T07:12:42;17.67;;;8.00;;
3698;SDS011;1865;50.918;7.092;2022-12-18T07:15:08;17.40;;;7.43;;
3698;SDS011;1865;50.918;7.092;2022-12-18T07:17:34;15.67;;;7.07;;
3698;SDS011;1865;50.918;7.092;2022-12-18T07:19:59;18.50;;;8.17;;
3698;SDS011;1865;50.918;7.092;2022-12-18T07:22:25;14.93;;;7.37;;
3698;SDS011;1865;50.918;7.092;2022-12-18T07:24:51;15.63;;;7.23;;
3698;SDS011;1865;50.918;7.092;2022-12-18T07:27:16;17.53;;;7.90;;
3698;SDS011;1865;50.918;7.092;2022-12-18T07:29:42;17.93;;;8.30;;
3698;SDS011;1865;50.918;7.092;2022-12-18T07:32:07;14.53;;;7.00;;
3698;SDS011;1865;50.918;7.092;2022-12-18T07:34:33;14.90;;;7.60;;
3698;SDS011;1865;50.918;7.092;2022-12-18T07:36:59;15.97;;;7.93;;
3698;SDS011;1865;50.918;7.092;2022-12-18T07:39:24;12.87;;;7.33;;
3698;SDS011;1865;50.918;7.092;2022-12-18T07:41:50;14.70;;;8.13;;
3698;SDS011;1865;50.918;7.092;2022-12-18T07:44:34;15.43;;;7.60;;
3698;SDS011;1865;50.918;7.092;2022-12-18T07:46:59;14.10;;;6.93;;
3698;SDS011;1865;50.918;7.092;2022-12-18T07:49:25;17.60;;;8.70;;
3698;SDS011;1865;50.918;7.092;2022-12-18T07:51:50;15.27;;;8.30;;
3698;SDS011;1865;50.918;7.092;2022-12-18T07:54:16;17.07;;;9.10;;
3698;SDS011;1865;50.918;7.092;2022-12-18T07:56:41;16.40;;;7.83;;
3698;SDS011;1865;50.918;7.092;2022-12-18T07:59:07;18.20;;;9.10;;
3698;SDS011;1865;50.918;7.092;2022-12-18T08:01:33;22.37;;;10.53;;
3698;SDS011;1865;50.918;7.092;2022-12-18T08:03:58;18.77;;;9.57;;
3698;SDS011;1865;50.918;7.092;2022-12-18T08:06:24;17.57;;;9.50;;
3698;SDS011;1865;50.918;7.092;2022-12-18T08:08:52;18.10;;;8.83;;
3698;SDS011;1865;50.918;7.092;2022-12-18T08:11:19;14.20;;;7.30;;
3698;SDS011;1865;50.918;7.092;2022-12-18T08:13:44;11.37;;;6.10;;
3698;SDS011;1865;50.918;7.092;2022-12-18T08:16:10;13.17;;;6.50;;
3698;SDS011;1865;50.918;7.092;2022-12-18T08:18:36;15.07;;;6.33;;
3698;SDS011;1865;50.918;7.092;2022-12-18T08:23:40;12.13;;;6.00;;
3698;SDS011;1865;50.918;7.092;2022-12-18T08:26:07;14.63;;;5.40;;
3698;SDS011;1865;50.918;7.092;2022-12-18T08:28:33;10.97;;;5.70;;
3698;SDS011;1865;50.918;7.092;2022-12-18T08:30:58;11.20;;;5.37;;
3698;SDS011;1865;50.918;7.092;2022-12-18T08:33:24;17.40;;;7.00;;
3698;SDS011;1865;50.918;7.092;2022-12-18T08:35:51;13.90;;;6.70;;
3698;SDS011;1865;50.918;7.092;2022-12-18T08:38:17;17.03;;;6.37;;
3698;SDS011;1865;50.918;7.092;2022-12-18T08:40:42;11.43;;;6.40;;
3698;SDS011;1865;50.918;7.092;2022-12-18T08:43:09;16.20;;;7.23;;
3698;SDS011;1865;50.918;7.092;2022-12-18T08:45:54;14.50;;;6.40;;
3698;SDS011;1865;50.918;7.092;2022-12-18T08:48:19;15.20;;;6.30;;
3698;SDS011;1865;50.918;7.092;2022-12-18T08:50:55;14.13;;;6.67;;
3698;SDS011;1865;50.918;7.092;2022-12-18T08:53:21;19.27;;;7.13;;
3698;SDS011;1865;50.918;7.092;2022-12-18T08:55:46;17.33;;;7.40;;
3698;SDS011;1865;50.918;7.092;2022-12-18T08:58:12;16.27;;;7.63;;
3698;SDS011;1865;50.918;7.092;2022-12-18T09:00:37;12.97;;;6.40;;
3698;SDS011;1865;50.918;7.092;2022-12-18T09:03:03;15.93;;;7.07;;
3698;SDS011;1865;50.918;7.092;2022-12-18T09:05:28;15.00;;;6.73;;
3698;SDS011;1865;50.918;7.092;2022-12-18T09:07:55;15.23;;;6.57;;
3698;SDS011;1865;50.918;7.092;2022-12-18T09:10:21;14.17;;;6.83;;
3698;SDS011;1865;50.918;7.092;2022-12-18T09:12:46;14.00;;;7.70;;
3698;SDS011;1865;50.918;7.092;2022-12-18T09:15:12;17.87;;;7.33;;
3698;SDS011;1865;50.918;7.092;2022-12-18T09:17:37;15.57;;;7.63;;
3698;SDS011;1865;50.918;7.092;2022-12-18T09:20:03;15.40;;;7.20;;
3698;SDS011;1865;50.918;7.092;2022-12-18T09:22:29;17.40;;;7.73;;
3698;SDS011;1865;50.918;7.092;2022-12-18T09:24:55;16.70;;;6.70;;
3698;SDS011;1865;50.918;7.092;2022-12-18T09:27:21;15.63;;;7.50;;
3698;SDS011;1865;50.918;7.092;2022-12-18T09:29:46;19.13;;;6.73;;
3698;SDS011;1865;50.918;7.092;2022-12-18T09:32:12;14.73;;;7.50;;
3698;SDS011;1865;50.918;7.092;2022-12-18T09:34:37;17.60;;;7.93;;
3698;SDS011;1865;50.918;7.092;2022-12-18T09:37:03;13.77;;;7.27;;
3698;SDS011;1865;50.918;7.092;2022-12-18T09:39:28;17.93;;;8.07;;
3698;SDS011;1865;50.918;7.092;2022-12-18T09:41:54;18.40;;;8.20;;
3698;SDS011;1865;50.918;7.092;2022-12-18T09:44:29;15.33;;;7.27;;
3698;SDS011;1865;50.918;7.092;2022-12-18T09:47:02;17.13;;;6.63;;
3698;SDS011;1865;50.918;7.092;2022-12-18T09:49:42;15.87;;;6.87;;
3698;SDS011;1865;50.918;7.092;2022-12-18T09:52:22;15.30;;;7.83;;
3698;SDS011;1865;50.918;7.092;2022-12-18T09:58:15;15.20;;;7.00;;
3698;SDS011;1865;50.918;7.092;2022-12-18T10:00:52;16.20;;;7.27;;
3698;SDS011;1865;50.918;7.092;2022-12-18T10:03:19;15.83;;;7.20;;
3698;SDS011;1865;50.918;7.092;2022-12-18T10:05:58;19.63;;;8.80;;
3698;SDS011;1865;50.918;7.092;2022-12-18T10:08:38;17.50;;;8.50;;
3698;SDS011;1865;50.918;7.092;2022-12-18T10:20:08;16.90;;;8.00;;
3698;SDS011;1865;50.918;7.092;2022-12-18T10:28:10;18.53;;;7.17;;
3698;SDS011;1865;50.918;7.092;2022-12-18T10:30:42;18.77;;;7.47;;
3698;SDS011;1865;50.918;7.092;2022-12-18T10:33:19;20.20;;;8.30;;
3698;SDS011;1865;50.918;7.092;2022-12-18T10:35:47;20.73;;;9.33;;
3698;SDS011;1865;50.918;7.092;2022-12-18T10:41:41;18.90;;;8.63;;
3698;SDS011;1865;50.918;7.092;2022-12-18T10:43:47;16.63;;;8.30;;
3698;SDS011;1865;50.918;7.092;2022-12-18T10:46:14;16.37;;;7.47;;
3698;SDS011;1865;50.918;7.092;2022-12-18T10:48:53;20.30;;;7.27;;
3698;SDS011;1865;50.918;7.092;2022-12-18T10:51:21;16.73;;;7.70;;
3698;SDS011;1865;50.918;7.092;2022-12-18T10:53:51;18.87;;;8.43;;
3698;SDS011;1865;50.918;7.092;2022-12-18T10:56:22;20.90;;;8.93;;
3698;SDS011;1865;50.918;7.092;2022-12-18T11:01:45;17.97;;;8.17;;
3698;SDS011;1865;50.918;7.092;2022-12-18T11:04:16;19.03;;;8.30;;
3698;SDS011;1865;50.918;7.092;2022-12-18T11:09:27;22.07;;;9.33;;
3698;SDS011;1865;50.918;7.092;2022-12-18T11:12:01;22.53;;;9.27;;
3698;SDS011;1865;50.918;7.092;2022-12-18T11:14:30;20.40;;;8.97;;
3698;SDS011;1865;50.918;7.092;2022-12-18T11:17:01;18.33;;;8.53;;
3698;SDS011;1865;50.918;7.092;2022-12-18T11:21:58;17.57;;;8.73;;
3698;SDS011;1865;50.918;7.092;2022-12-18T11:24:32;19.63;;;8.70;;
3698;SDS011;1865;50.918;7.092;2022-12-18T11:27:02;19.37;;;8.30;;
3698;SDS011;1865;50.918;7.092;2022-12-18T11:29:40;23.00;;;9.97;;
3698;SDS011;1865;50.918;7.092;2022-12-18T11:35:20;20.30;;;8.67;;
3698;SDS011;1865;50.918;7.092;2022-12-18T11:37:59;18.83;;;9.03;;
3698;SDS011;1865;50.918;7.092;2022-12-18T11:40:33;21.40;;;9.43;;
3698;SDS011;1865;50.918;7.092;2022-12-18T11:46:09;17.53;;;7.93;;
3698;SDS011;1865;50.918;7.092;2022-12-18T11:48:52;22.80;;;9.07;;
3698;SDS011;1865;50.918;7.092;2022-12-18T11:51:28;18.97;;;9.17;;
3698;SDS011;1865;50.918;7.092;2022-12-18T11:54:00;25.77;;;9.83;;
3698;SDS011;1865;50.918;7.092;2022-12-18T11:56:35;20.20;;;8.63;;
3698;SDS011;1865;50.918;7.092;2022-12-18T12:04:27;18.87;;;8.60;;
3698;SDS011;1865;50.918;7.092;2022-12-18T12:07:17;18.60;;;9.00;;
3698;SDS011;1865;50.918;7.092;2022-12-18T12:15:55;21.63;;;10.80;;
3698;SDS011;1865;50.918;7.092;2022-12-18T12:18:40;23.50;;;10.27;;
3698;SDS011;1865;50.918;7.092;2022-12-18T12:24:13;25.20;;;10.57;;
3698;SDS011;1865;50.918;7.092;2022-12-18T12:27:08;20.80;;;9.83;;
3698;SDS011;1865;50.918;7.092;2022-12-18T12:35:44;23.83;;;11.20;;
3698;SDS011;1865;50.918;7.092;2022-12-18T12:38:27;22.70;;;10.90;;
3698;SDS011;1865;50.918;7.092;2022-12-18T12:41:18;21.20;;;9.67;;
3698;SDS011;1865;50.918;7.092;2022-12-18T12:44:08;22.10;;;10.03;;
3698;SDS011;1865;50.918;7.092;2022-12-18T12:46:41;20.90;;;10.13;;
3698;SDS011;1865;50.918;7.092;2022-12-18T12:49:15;22.97;;;10.83;;
3698;SDS011;1865;50.918;7.092;2022-12-18T12:51:45;20.43;;;10.83;;
3698;SDS011;1865;50.918;7.092;2022-12-18T12:54:19;23.97;;;10.77;;
3698;SDS011;1865;50.918;7.092;2022-12-18T13:05:18;22.70;;;10.63;;
3698;SDS011;1865;50.918;7.092;2022-12-18T13:08:09;24.07;;;11.20;;
3698;SDS011;1865;50.918;7.092;2022-12-18T13:10:40;22.67;;;10.93;;
3698;SDS011;1865;50.918;7.092;2022-12-18T13:13:09;24.57;;;11.03;;
3698;SDS011;1865;50.918;7.092;2022-12-18T13:15:48;25.47;;;11.70;;
3698;SDS011;1865;50.918;7.092;2022-12-18T13:18:29;23.63;;;11.80;;
3698;SDS011;1865;50.918;7.092;2022-12-18T13:23:35;27.33;;;10.60;;
3698;SDS011;1865;50.918;7.092;2022-12-18T13:31:11;25.30;;;11.07;;
3698;SDS011;1865;50.918;7.092;2022-12-18T13:36:48;23.93;;;11.33;;
3698;SDS011;1865;50.918;7.092;2022-12-18T13:41:40;22.80;;;10.90;;
3698;SDS011;1865;50.918;7.092;2022-12-18T13:46:53;24.17;;;11.30;;
3698;SDS011;1865;50.918;7.092;2022-12-18T13:49:22;23.90;;;11.60;;
3698;SDS011;1865;50.918;7.092;2022-12-18T13:52:02;22.10;;;11.17;;
3698;SDS011;1865;50.918;7.092;2022-12-18T13:54:41;26.20;;;12.20;;
3698;SDS011;1865;50.918;7.092;2022-12-18T14:00:26;28.93;;;11.87;;
3698;SDS011;1865;50.918;7.092;2022-12-18T14:02:54;23.77;;;10.93;;
3698;SDS011;1865;50.918;7.092;2022-12-18T14:05:26;28.33;;;12.50;;
3698;SDS011;1865;50.918;7.092;2022-12-18T14:08:01;23.80;;;11.20;;
3698;SDS011;1865;50.918;7.092;2022-12-18T14:10:30;26.87;;;13.17;;
3698;SDS011;1865;50.918;7.092;2022-12-18T14:12:56;27.20;;;12.43;;
3698;SDS011;1865;50.918;7.092;2022-12-18T14:15:44;27.47;;;12.80;;
3698;SDS011;1865;50.918;7.092;2022-12-18T14:20:45;23.27;;;11.40;;
3698;SDS011;1865;50.918;7.092;2022-12-18T14:23:32;25.70;;;11.60;;
3698;SDS011;1865;50.918;7.092;2022-12-18T14:26:03;24.00;;;11.10;;
3698;SDS011;1865;50.918;7.092;2022-12-18T14:28:53;27.43;;;12.60;;
3698;SDS011;1865;50.918;7.092;2022-12-18T14:31:25;24.43;;;11.53;;
3698;SDS011;1865;50.918;7.092;2022-12-18T14:33:53;24.87;;;11.57;;
3698;SDS011;1865;50.918;7.092;2022-12-18T14:36:21;31.97;;;14.37;;
3698;SDS011;1865;50.918;7.092;2022-12-18T14:38:51;28.20;;;12.90;;
3698;SDS011;1865;50.918;7.092;2022-12-18T14:41:21;27.97;;;11.73;;
3698;SDS011;1865;50.918;7.092;2022-12-18T14:43:49;27.57;;;12.93;;
3698;SDS011;1865;50.918;7.092;2022-12-18T14:49:45;28.40;;;11.40;;
3698;SDS011;1865;50.918;7.092;2022-12-18T14:51:49;30.97;;;13.10;;
3698;SDS011;1865;50.918;7.092;2022-12-18T14:54:17;28.13;;;13.77;;
3698;SDS011;1865;50.918;7.092;2022-12-18T14:56:45;25.20;;;12.47;;
3698;SDS011;1865;50.918;7.092;2022-12-18T15:04:29;30.73;;;12.73;;
3698;SDS011;1865;50.918;7.092;2022-12-18T15:09:43;26.80;;;12.00;;
3698;SDS011;1865;50.918;7.092;2022-12-18T15:12:27;33.30;;;14.13;;
3698;SDS011;1865;50.918;7.092;2022-12-18T15:18:09;28.67;;;12.30;;
3698;SDS011;1865;50.918;7.092;2022-12-18T15:20:49;30.07;;;13.63;;
3698;SDS011;1865;50.918;7.092;2022-12-18T15:23:49;26.43;;;12.57;;
3698;SDS011;1865;50.918;7.092;2022-12-18T15:26:18;29.37;;;13.00;;
3698;SDS011;1865;50.918;7.092;2022-12-18T15:28:47;33.53;;;14.60;;
3698;SDS011;1865;50.918;7.092;2022-12-18T15:36:29;29.33;;;13.67;;
3698;SDS011;1865;50.918;7.092;2022-12-18T15:38:56;26.83;;;13.20;;
3698;SDS011;1865;50.918;7.092;2022-12-18T15:44:45;33.43;;;16.03;;
3698;SDS011;1865;50.918;7.092;2022-12-18T15:47:12;28.43;;;13.17;;
3698;SDS011;1865;50.918;7.092;2022-12-18T15:49:38;30.13;;;13.97;;
3698;SDS011;1865;50.918;7.092;2022-12-18T15:52:05;31.37;;;13.63;;
3698;SDS011;1865;50.918;7.092;2022-12-18T15:54:32;34.37;;;15.10;;
3698;SDS011;1865;50.918;7.092;2022-12-18T15:57:23;33.03;;;14.63;;
3698;SDS011;1865;50.918;7.092;2022-12-18T15:59:53;27.07;;;14.17;;
3698;SDS011;1865;50.918;7.092;2022-12-18T16:02:21;29.40;;;14.97;;
3698;SDS011;1865;50.918;7.092;2022-12-18T16:04:48;31.00;;;14.97;;
3698;SDS011;1865;50.918;7.092;2022-12-18T16:07:15;28.60;;;14.30;;
3698;SDS011;1865;50.918;7.092;2022-12-18T16:09:40;30.03;;;14.23;;
3698;SDS011;1865;50.918;7.092;2022-12-18T16:12:18;36.53;;;16.50;;
3698;SDS011;1865;50.918;7.092;2022-12-18T16:14:47;24.67;;;11.93;;
3698;SDS011;1865;50.918;7.092;2022-12-18T16:17:14;30.53;;;14.53;;
3698;SDS011;1865;50.918;7.092;2022-12-18T16:19:42;38.47;;;15.73;;
3698;SDS011;1865;50.918;7.092;2022-12-18T16:22:13;36.50;;;16.10;;
3698;SDS011;1865;50.918;7.092;2022-12-18T16:24:43;31.00;;;14.40;;
3698;SDS011;1865;50.918;7.092;2022-12-18T16:27:08;35.07;;;15.80;;
3698;SDS011;1865;50.918;7.092;2022-12-18T16:29:34;36.47;;;16.50;;
3698;SDS011;1865;50.918;7.092;2022-12-18T16:32:00;35.70;;;16.57;;
3698;SDS011;1865;50.918;7.092;2022-12-18T16:34:30;33.00;;;15.13;;
3698;SDS011;1865;50.918;7.092;2022-12-18T16:37:03;31.40;;;14.90;;
3698;SDS011;1865;50.918;7.092;2022-12-18T16:39:30;31.47;;;16.00;;
3698;SDS011;1865;50.918;7.092;2022-12-18T16:41:58;32.07;;;16.30;;
3698;SDS011;1865;50.918;7.092;2022-12-18T16:44:24;37.47;;;18.00;;
3698;SDS011;1865;50.918;7.092;2022-12-18T16:46:50;35.80;;;15.67;;
3698;SDS011;1865;50.918;7.092;2022-12-18T16:49:17;34.30;;;16.23;;
3698;SDS011;1865;50.918;7.092;2022-12-18T16:51:45;36.20;;;16.53;;
3698;SDS011;1865;50.918;7.092;2022-12-18T16:54:12;32.17;;;15.00;;
3698;SDS011;1865;50.918;7.092;2022-12-18T16:56:38;33.10;;;15.73;;
3698;SDS011;1865;50.918;7.092;2022-12-18T16:59:04;30.10;;;14.90;;
3698;SDS011;1865;50.918;7.092;2022-12-18T17:01:30;34.90;;;15.73;;
3698;SDS011;1865;50.918;7.092;2022-12-18T17:03:58;32.37;;;14.77;;
3698;SDS011;1865;50.918;7.092;2022-12-18T17:06:26;32.97;;;16.57;;
3698;SDS011;1865;50.918;7.092;2022-12-18T17:08:54;36.47;;;17.30;;
3698;SDS011;1865;50.918;7.092;2022-12-18T17:11:22;37.30;;;16.00;;
3698;SDS011;1865;50.918;7.092;2022-12-18T17:13:49;39.30;;;16.50;;
3698;SDS011;1865;50.918;7.092;2022-12-18T17:16:15;36.50;;;15.80;;
3698;SDS011;1865;50.918;7.092;2022-12-18T17:18:41;33.97;;;15.17;;
3698;SDS011;1865;50.918;7.092;2022-12-18T17:21:08;41.13;;;16.83;;
3698;SDS011;1865;50.918;7.092;2022-12-18T17:23:34;38.60;;;16.37;;
3698;SDS011;1865;50.918;7.092;2022-12-18T17:26:03;35.60;;;16.40;;
3698;SDS011;1865;50.918;7.092;2022-12-18T17:28:33;33.83;;;14.40;;
3698;SDS011;1865;50.918;7.092;2022-12-18T17:30:58;35.00;;;16.63;;
3698;SDS011;1865;50.918;7.092;2022-12-18T17:33:24;38.03;;;15.70;;